Antoine Wiels

Antoine Wiels

Statistiques 2026

  • Courses courues : 91
  • Nb de victoires : 24
  • Nb de places : 51
  • Écart gagnant : -
  • Réussite à la gagne : 26%
  • Réussite à la place : 56%
Musique : 1a 3a 0a 3a 0a 0a 3a 5a Da Da 7a Da 3a 7a Da 1a 8a 1a
DateRangCatégorieAlloc.Dist.HippodromeChevalRed. KmSpé.
24/05/14 1 Trot 20 000€ 2 150m Argentan Baywatch 1'17"4 Attelé
24/05/14 5 Trot 18 000€ 2 875m Argentan Action Forte 1'21"1 Attelé
24/05/14 2 Trot 27 000€ 2 900m Argentan Uniflosa Bella 1'18"2 Attelé
29/05/14 6 Mixte 14 000€ 2 775m Angouleme Arsenal du Lupin 1'19"3 Attelé
29/05/14 6 Mixte 32 000€ 2 775m Angouleme Show d'hermes 1'17"0 Attelé
29/05/14 D Mixte 18 000€ 2 750m Angouleme Vanille des Fanes Attelé
31/05/14 D Trot 32 000€ 2 875m Laval Quad Censerie Attelé
01/06/14 7 Trot 20 000€ 2 575m Saint Brieuc Vallaeys Red 1'18"0 Attelé lire

Après avoir figuré, n'a pas été capable de changer de rythme depuis la sortie du tournant final.

02/06/14 4 Trot 18 000€ 2 625m La Rochelle Ascot Menuet 1'17"1 Attelé lire

Après avoir figuré au sein du peloton, a su gagner du terrain dans la phase finale mais sans pouvoir menacer les premiers.

08/06/14 4 Trot 13 000€ 2 500m Savigny Sur Braye Aleno Josselyn Attelé
08/06/14 0 Trot 13 000€ 3 525m Savigny Sur Braye Vanina Bella Attelé
12/06/14 D Trot 21 000€ 2 200m Vichy Amazing Twin Attelé
14/06/14 D Trot 22 000€ 2 575m Saint Brieuc Bilto de Laigner Attelé
14/06/14 0 Trot 30 000€ 3 175m Saint Brieuc Reve de l'Odon Attelé
14/06/14 1 Trot 22 000€ 2 575m Saint Brieuc Tic Tac du Mont 1'16"7 Attelé
15/06/14 2 Trot 32 000€ 2 800m Rambouillet Tango de la Manza Attelé
21/06/14 1 Trot 21 000€ 3 025m Nantes Viole Joyeuse 1'16"8 Attelé
22/06/14 D Trot 15 000€ 2 775m Ecommoy Azur du Lupin Attelé
22/06/14 0 Trot 16 000€ 2 750m Ecommoy Victoire du Perche Attelé
22/06/14 1 Trot 28 000€ 2 750m Ecommoy Tsar de l'Esque TNC Attelé
23/06/14 5 Trot 22 000€ 2 450m Caen Benuro d'Auvillier 1'16"7 Attelé lire

Très vite troisième, a eu sa chance pour un accessit à la sortie du tournant final, avant de faiblir peu après.

25/06/14 4 Trot 32 000€ 2 875m Laval Uniflosa Bella 1'14"8 Attelé
26/06/14 7 Trot 80 000€ 2 150m Vichy Radjah de Venel 1'13"5 Attelé
29/06/14 0 Trot 10 000€ 2 950m Saint Malo American Glory Attelé
29/06/14 9 Trot 12 000€ 2 950m Saint Malo Argent du Lupin 1'22"4 Attelé
29/06/14 2 Trot 16 000€ 2 950m Saint Malo Varum Thieben 1'18"0 Attelé
29/06/14 1 Trot 25 000€ 2 975m Saint Malo Sultane d'Azur 1'20"0 Attelé
30/06/14 D Trot 22 000€ 1 609m Vichy Ursuline du Clos Attelé
30/06/14 4 Trot 24 000€ 2 150m Vichy Vatinus Mas 1'15"5 Attelé
03/07/14 D Trot 32 000€ 2 800m Vichy Tempete d'hermes Attelé
03/07/14 4 Trot 20 000€ 2 850m Vichy Amour du Lupin 1'18"6 Attelé
04/07/14 0 Trot 55 000€ 2 875m Cabourg Ubu de Saint Marc Attelé lire

Vite en queue de peloton, n'a pas trop mal conclu en retrait toutefois.

04/07/14 4 Trot 36 000€ 2 850m Cabourg Tic Tac du Mont 1'16"9 Attelé lire

Est venu aux premiers rangs au passage devant les tribunes mais, n'a pu soutenir la comparaison dans la ligne droite.

04/07/14 3 Trot 22 000€ 2 050m Cabourg Benuro d'Auvillier 1'14"5 Attelé lire

Très vite dans le dos des animateurs, a eu sa chance pour un meilleur classement dans le tournant final, puis a plafonné.

05/07/14 9 Trot 120 000€ 3 525m Vichy Radjah de Venel 1'15"8 Attelé
06/07/14 3 Trot 12 000€ 3 375m Agon Coutainville Amadeo Jenko Attelé
06/07/14 5 Trot 12 000€ 2 125m Agon Coutainville Bip Bip du Reverdy Attelé
06/07/14 3 Trot 16 000€ 2 125m Agon Coutainville Bombe d'Ourville Attelé
06/07/14 0 Trot 45 000€ 3 375m Agon Coutainville Saladin Attelé
07/07/14 3 Mixte 13 000€ 2 825m Sable Sur Sarthe Beautiful Atout Attelé
11/07/14 4 Trot 25 000€ 2 875m Meslay Du Maine Sultane d'Azur 1'15"1 Attelé
12/07/14 7 Trot 20 000€ 2 775m Les Sables D'Olonne Ascot Menuet 1'18"6 Attelé
12/07/14 D Trot 25 000€ 2 800m Les Sables D'Olonne Uniflosa Bella Attelé
14/07/14 4 Trot 12 000€ 2 625m La Rochelle Vopsus des Keches 1'17"4 Attelé
14/07/14 7 Trot 16 000€ 2 650m La Rochelle Soleil d'Attaque 1'16"7 Attelé
14/07/14 8 Trot 12 000€ 2 625m La Rochelle Violetta Bella 1'17"8 Attelé
13/07/14 D Mixte 11 000€ 2 825m Lignieres Baron de Fleur Attelé
13/07/14 0 Mixte 25 000€ 2 825m Lignieres Ursula Bella Attelé
15/07/14 0 Trot 20 000€ 2 725m Pornichet La Baule Augusto Brador Attelé
15/07/14 0 Trot 32 000€ 2 725m Pornichet La Baule Tango de la Manza Attelé